createdAt,value
2022-09-10T00:07:40.061Z,6.07
2022-09-10T00:18:01.549Z,5.32
2022-09-10T00:28:25.534Z,5.13
2022-09-10T00:38:47.523Z,6.35
2022-09-10T00:49:14.621Z,7.00
2022-09-10T00:59:36.322Z,10.77
2022-09-10T01:09:59.965Z,7.00
2022-09-10T01:20:30.483Z,7.00
2022-09-10T01:30:58.049Z,8.43
2022-09-10T01:41:24.087Z,6.60
2022-09-10T01:52:15.177Z,6.03
2022-09-10T02:02:40.819Z,11.90
2022-09-10T02:13:02.273Z,8.07
2022-09-10T02:23:33.182Z,13.95
2022-09-10T02:33:54.711Z,13.27
2022-09-10T02:44:16.578Z,11.73
2022-09-10T02:54:38.297Z,12.07
2022-09-10T03:04:59.770Z,12.43
2022-09-10T03:15:22.862Z,10.88
2022-09-10T03:25:49.078Z,11.43
2022-09-10T03:36:13.300Z,12.45
2022-09-10T03:46:34.764Z,13.55
2022-09-10T04:07:17.558Z,16.70
2022-09-10T04:28:01.870Z,18.10
2022-09-10T04:38:23.373Z,18.70
2022-09-10T04:48:44.850Z,20.23
2022-09-10T04:59:06.558Z,14.95
2022-09-10T05:09:34.100Z,16.05
2022-09-10T05:19:55.831Z,17.45
2022-09-10T05:30:18.714Z,22.38
2022-09-10T05:40:42.733Z,21.77
2022-09-10T05:51:04.182Z,20.25
2022-09-10T06:01:26.145Z,16.23
2022-09-10T06:11:48.519Z,21.25
2022-09-10T06:22:11.147Z,19.85
2022-09-10T06:32:32.628Z,20.10
2022-09-10T06:42:54.684Z,18.98
2022-09-10T06:53:16.729Z,21.13
2022-09-10T07:03:38.231Z,18.83
2022-09-10T07:14:01.371Z,20.88
2022-09-10T07:24:22.874Z,26.42
2022-09-10T07:34:44.353Z,23.95
2022-09-10T07:45:07.171Z,22.08
2022-09-10T07:55:30.492Z,30.75
2022-09-10T08:05:52.066Z,24.65
2022-09-10T08:16:17.861Z,27.33
2022-09-10T08:26:40.115Z,27.50
2022-09-10T08:37:03.272Z,21.75
2022-09-10T08:47:28.080Z,22.88
2022-09-10T08:57:55.523Z,17.80
2022-09-10T09:08:21.834Z,22.33
2022-09-10T09:19:54.367Z,21.17
2022-09-10T09:30:20.141Z,16.02
2022-09-10T09:40:56.275Z,14.15
2022-09-10T09:51:21.650Z,15.48
2022-09-10T10:01:44.492Z,11.73
2022-09-10T10:12:07.171Z,12.38
2022-09-10T10:22:32.614Z,14.07
2022-09-10T10:33:00.000Z,10.50
2022-09-10T10:43:42.300Z,14.25
2022-09-10T10:54:33.815Z,14.48
2022-09-10T11:05:01.197Z,13.98
2022-09-10T11:15:48.986Z,15.77
2022-09-10T11:26:22.745Z,15.80
2022-09-10T11:36:54.801Z,16.73
2022-09-10T11:47:32.331Z,15.50
2022-09-10T11:58:11.567Z,11.77
2022-09-10T12:08:55.925Z,22.52
2022-09-10T12:19:30.649Z,13.98
2022-09-10T12:29:52.098Z,12.95
2022-09-10T12:40:44.637Z,14.85
2022-09-10T12:51:21.611Z,14.63
2022-09-10T13:01:48.887Z,10.68
2022-09-10T13:12:21.095Z,11.65
2022-09-10T13:23:04.481Z,18.10
2022-09-10T13:33:33.398Z,16.20
2022-09-10T13:44:20.388Z,13.82
2022-09-10T13:54:51.383Z,17.88
2022-09-10T14:05:23.107Z,16.00
2022-09-10T14:15:44.832Z,16.75
2022-09-10T14:26:23.493Z,16.23
2022-09-10T14:36:45.104Z,15.60
2022-09-10T14:47:10.121Z,14.32
2022-09-10T14:57:31.684Z,16.98
2022-09-10T15:07:53.198Z,16.73
2022-09-10T15:18:14.970Z,16.20
2022-09-10T15:28:36.502Z,14.52
2022-09-10T15:38:59.607Z,19.77
2022-09-10T15:49:21.078Z,19.70
2022-09-10T15:59:42.600Z,17.95
2022-09-10T16:10:06.199Z,18.23
2022-09-10T16:20:27.714Z,19.50
2022-09-10T16:30:49.682Z,17.77
2022-09-10T16:41:13.569Z,21.33
2022-09-10T16:51:36.128Z,17.73
2022-09-10T17:01:59.523Z,20.52
2022-09-10T17:12:21.105Z,16.70
2022-09-10T17:22:42.810Z,10.85
2022-09-10T17:33:06.008Z,16.85
2022-09-10T17:43:29.922Z,8.85
2022-09-10T17:53:53.664Z,6.75
2022-09-10T18:04:15.706Z,14.00
2022-09-10T18:14:38.439Z,7.00
2022-09-10T18:24:59.909Z,7.13
2022-09-10T18:35:21.461Z,7.60
2022-09-10T18:45:42.974Z,20.13
2022-09-10T18:56:10.074Z,10.70
2022-09-10T19:06:35.285Z,14.15
2022-09-10T19:16:58.186Z,20.95
2022-09-10T19:27:19.660Z,22.40
2022-09-10T19:37:41.206Z,23.73
2022-09-10T19:48:03.256Z,25.73
2022-09-10T19:58:24.731Z,26.58
2022-09-10T20:08:50.252Z,25.08
2022-09-10T20:19:21.948Z,35.45
2022-09-10T20:29:43.916Z,29.00
2022-09-10T20:40:05.910Z,35.80
2022-09-10T20:50:27.496Z,29.75
2022-09-10T21:00:48.951Z,33.35
2022-09-10T21:11:19.349Z,31.77
2022-09-10T21:21:42.070Z,32.43
2022-09-10T21:32:03.576Z,33.08
2022-09-10T21:42:25.094Z,34.47
2022-09-10T21:52:46.571Z,32.30
2022-09-10T22:03:08.092Z,36.28
2022-09-10T22:13:29.932Z,34.40
2022-09-10T22:23:51.791Z,35.58
2022-09-10T22:34:15.443Z,35.13
2022-09-10T22:44:36.904Z,39.95
2022-09-10T22:54:58.363Z,34.10
2022-09-10T23:05:20.047Z,38.72
2022-09-10T23:15:41.695Z,34.75
2022-09-10T23:26:05.704Z,39.40
2022-09-10T23:36:29.932Z,37.85
2022-09-10T23:46:51.963Z,39.03
2022-09-10T23:57:13.424Z,37.85
